Estación Meteorológica Peña el Pijo (Robertgarden) [ 02/02/23 20:04:21 CET ]

Fecha Hora Presion(HPa) Temp (°C) Humedad % Rocio (°C) Viento ( m/s) Direccion Lluvia 1Hora(mm) Lluvia 24H(mm) LLuvia Total(mm)
2010-May-22 01:01:18 1014.100 8.9 64 2.4         113.96
2010-May-22 02:01:16 1013.900 8.3 69 3.0         113.96
2010-May-22 03:04:16 1013.600 7.3 72 2.6         113.96
2010-May-22 04:01:16 1013.400 6.8 76 2.8         113.96
2010-May-22 05:01:16 1013.200 6.3 76 2.4         113.96
2010-May-22 06:01:11 1012.700 5.8 79 2.4         113.96
2010-May-22 07:01:19 1012.800 4.9 82 2.0         113.96
2010-May-22 08:01:12 1013.300 7.2 82 4.3         113.96
2010-May-22 09:01:12 1013.100 12.6 66 6.4         113.96
2010-May-22 10:01:14 1012.700 19.1 47 7.5         113.96
2010-May-22 11:01:14 1012.400 21.8 38 6.8         113.96
2010-May-22 12:01:13 1012.400 24.9 31 6.6         113.96
2010-May-22 13:01:17 1011.900 26.6 28 6.5         113.96
2010-May-22 14:01:14 1011.500 28.1 24 5.4         113.96
2010-May-22 15:01:11 1011.100 28.1 23 4.8         113.96
2010-May-22 16:01:14 1010.500 28.6 25 6.4         113.96
2010-May-22 17:01:16 1010.300 27.1 27 6.3         113.96
2010-May-22 18:01:14 1010.500 24.8 30 6.1 1.7 NNE     113.96
2010-May-22 19:01:14 1010.400 22.8 35 6.4 2.5 SSE     113.96
2010-May-22 20:01:17 1010.700 20.6 40 6.5         113.96
2010-May-22 21:01:14 1011.000 18.3 44 5.8         113.96
2010-May-22 22:01:13 1011.500 15.6 52 5.8         113.96
2010-May-22 23:01:13 1011.800 13.0 62 5.9         113.96

Temperatura Máxima:28°    Temperatura Mínima:
Presión Máxima:1014.100 Hpa    Presión Mínima:1010.300 Hpa


Volver